Bendale, MD

2:51 AM EDT on March 27, 2017 (GMT -0400)
Carrollton Manor | | Change Station

Elev 95 ft 39.08 °N, 76.58 °W | Updated 9 seconds ago

Fog
Fog
45.5 °F
Feels Like 46 °F
N
0.0
Wind Variable Wind from WSW
Gusts 0.0 mph

Today
High -- | Low -- °F
--% Chance of Precip.
Yesterday
High -- | Low -- °F
Precip. -- in
Pressure 30.17 in
Visibility 0.5 miles
Clouds
Windchill 46 °F
Dew Point 45 °F
Humidity 97%
Rainfall 0.00 in
Snow Depth Not available.
6:58 AM 7:25 PM
Waning Crescent, 1% visible
METAR KBWI 270554Z 08008KT 1/2SM R10/2600V2800FT FG VV002 07/07 A3017 RMK AO2 RAB39E51 SLP217 P0000 60000 T00670067 10072 20067 56019
Pressure 30.17 in
Visibility 0.5 miles
Clouds
Windchill 46 °F
Dew Point 45 °F
Humidity 97%
Rainfall 0.00 in
Snow Depth Not available.
6:58 AM 7:25 PM
Waning Crescent, 1% visible
METAR KBWI 270554Z 08008KT 1/2SM R10/2600V2800FT FG VV002 07/07 A3017 RMK AO2 RAB39E51 SLP217 P0000 60000 T00670067 10072 20067 56019

Get Severe Weather Alerts

Thanks for signing up!

Be on the lookout for a verification email in your inbox.

You'll start receiving the daily forecast at 8 AM.

×

10-Day Weather Forecast

Almanac

Astronomy

Mar. 27, 2017 Rise Set
Actual Time
Civil Twilight
Nautical Twilight
Astronomical Twilight
Moon
Length of Visible Light
Length of Day
Tomorrow will be .
, % of the Moon is Illuminated

Today's Extremes

State Highs State Lows

Community

WunderPhotos

Upload Photos

1,962,540 photos uploaded!

WunderBlog® & News

Nearby

Air Quality

  Air Quality AQ Index Pollutant
Not available.

Snow Depth

Station Depth Elevation

Earthquake Activity

City Distance Mag. Time & Date
Minimum magnitude displayed is 2.5.

Earthquake Activity

City Distance Mag. Time & Date
Minimum magnitude displayed is 2.5.

Coastal Water Temperatures

Place Temperature

Stations

Nearby Weather Stations

Station Location Temp. Windchill Dew Point Humidity Wind Precip. Elev Updated Type
                   

Watches & Warnings

There are currently no watches in effect.